Time;durP1;ratioP1;P1;durP2;ratioP2;P2;SDS_P1;SDS_P2;PMS_P1;PMS_P2;Temp;Humidity;BMP_temperature;BMP_pressure;BME280_temperature;BME280_humidity;BME280_pressure;Samples;Min_cycle;Max_cycle;Signal;HPM_P1;HPM_P2
2021/08/05 02:40:51;;;;;;;1.48;1.38;;;14.40;99.90;;;;;;5043943;28;20225;-87
2021/08/05 02:43:19;;;;;;;2.08;1.45;;;14.40;99.90;;;;;;5045967;28;20698;-86
2021/08/05 02:45:50;;;;;;;2.75;2.47;;;14.40;99.90;;;;;;5030241;28;20207;-86
2021/08/05 02:48:17;;;;;;;3.17;2.78;;;14.20;99.90;;;;;;5036176;28;20593;-87
2021/08/05 02:50:46;;;;;;;2.90;2.60;;;14.20;99.90;;;;;;5039282;28;20211;-86
2021/08/05 02:53:14;;;;;;;3.08;2.58;;;14.20;99.90;;;;;;5033756;28;20194;-87
2021/08/05 02:55:42;;;;;;;4.05;3.40;;;14.20;99.90;;;;;;5041184;28;20694;-87
2021/08/05 02:58:11;;;;;;;2.50;2.30;;;14.20;99.90;;;;;;5020500;28;20226;-86
2021/08/05 03:00:39;;;;;;;5.60;2.55;;;14.30;99.90;;;;;;5020922;28;20202;-87
2021/08/05 03:03:06;;;;;;;2.63;2.42;;;14.30;99.90;;;;;;5014578;28;20722;-87
2021/08/05 03:05:33;;;;;;;2.55;2.35;;;14.40;99.90;;;;;;5003501;28;20615;-86
2021/08/05 03:08:00;;;;;;;5.00;2.58;;;14.40;99.90;;;;;;5017630;28;20231;-86
2021/08/05 03:10:27;;;;;;;2.35;2.13;;;14.30;99.90;;;;;;5010402;28;20229;-86
2021/08/05 03:12:54;;;;;;;2.70;2.03;;;14.40;99.90;;;;;;5024245;28;20218;-87
2021/08/05 03:15:22;;;;;;;3.38;1.98;;;14.40;99.90;;;;;;5033363;28;20549;-86
2021/08/05 03:17:49;;;;;;;1.83;1.73;;;14.30;99.90;;;;;;5017046;28;20663;-87
2021/08/05 03:20:16;;;;;;;2.10;1.90;;;14.30;99.90;;;;;;5001772;28;20204;-86
2021/08/05 03:22:44;;;;;;;2.08;1.80;;;14.20;99.90;;;;;;5001647;28;20310;-86
2021/08/05 03:25:12;;;;;;;2.25;2.10;;;14.30;99.90;;;;;;5010398;28;20295;-86
2021/08/05 03:27:39;;;;;;;2.20;2.00;;;14.30;99.90;;;;;;5022269;28;20226;-86
2021/08/05 03:30:08;;;;;;;3.45;2.00;;;14.40;99.90;;;;;;5004872;28;20219;-86
2021/08/05 03:32:36;;;;;;;2.60;2.40;;;14.30;99.90;;;;;;5004113;28;20207;-86
2021/08/05 03:35:03;;;;;;;2.22;2.08;;;14.30;99.90;;;;;;5039831;28;20274;-86
2021/08/05 03:37:30;;;;;;;2.25;2.05;;;14.40;99.90;;;;;;5032477;28;20286;-86
2021/08/05 03:39:57;;;;;;;2.25;2.05;;;14.30;99.90;;;;;;5008947;28;20216;-86
2021/08/05 03:42:24;;;;;;;2.78;2.53;;;14.40;99.90;;;;;;5020221;28;20253;-86
2021/08/05 03:44:59;;;;;;;2.97;2.13;;;14.30;99.90;;;;;;5010419;28;20236;-86
2021/08/05 03:47:26;;;;;;;2.78;2.50;;;14.40;99.90;;;;;;5006366;28;20297;-86
2021/08/05 03:49:54;;;;;;;2.60;2.35;;;14.30;99.90;;;;;;5009112;28;20231;-86
2021/08/05 03:52:21;;;;;;;2.85;2.63;;;14.30;99.90;;;;;;5010723;28;20627;-87
2021/08/05 03:54:48;;;;;;;2.88;2.50;;;14.30;99.90;;;;;;5001294;28;20234;-88
2021/08/05 03:57:14;;;;;;;3.67;3.08;;;14.20;99.90;;;;;;5002784;28;20634;-87
2021/08/05 03:59:41;;;;;;;3.83;3.05;;;14.30;99.90;;;;;;5020326;28;20294;-86
2021/08/05 04:02:08;;;;;;;3.83;3.10;;;14.30;99.90;;;;;;5002662;28;20227;-87
2021/08/05 04:04:35;;;;;;;3.58;2.95;;;14.30;99.90;;;;;;5005328;28;20574;-86
2021/08/05 04:07:04;;;;;;;3.75;3.25;;;14.30;99.90;;;;;;5012802;28;20263;-87
2021/08/05 04:09:31;;;;;;;4.70;3.88;;;14.20;99.90;;;;;;5024364;28;20214;-88
2021/08/05 04:12:02;;;;;;;4.20;3.40;;;14.10;99.90;;;;;;4998278;28;20227;-86
2021/08/05 04:14:29;;;;;;;3.65;3.25;;;14.20;99.90;;;;;;5014493;28;20762;-87
2021/08/05 04:16:56;;;;;;;3.72;3.35;;;14.10;99.90;;;;;;5013644;28;20199;-87
2021/08/05 04:19:26;;;;;;;5.45;3.85;;;14.30;99.90;;;;;;5015299;28;20735;-86
2021/08/05 04:21:53;;;;;;;5.85;4.05;;;14.30;99.90;;;;;;5007705;28;20305;-86
2021/08/05 04:24:21;;;;;;;6.05;4.47;;;14.20;99.90;;;;;;5019408;28;20243;-86
2021/08/05 04:26:48;;;;;;;5.28;4.20;;;14.30;99.90;;;;;;5027415;28;20202;-88
2021/08/05 04:29:15;;;;;;;5.55;4.15;;;14.20;99.90;;;;;;5016829;28;20235;-87
2021/08/05 04:31:42;;;;;;;6.25;5.18;;;14.20;99.90;;;;;;5002736;28;20235;-86
2021/08/05 04:34:09;;;;;;;5.45;4.38;;;14.30;99.90;;;;;;5017892;28;20226;-86
2021/08/05 04:36:36;;;;;;;6.22;4.47;;;14.20;99.90;;;;;;5018809;28;20297;-88
2021/08/05 04:39:11;;;;;;;7.25;4.68;;;14.20;99.90;;;;;;5017806;28;20301;-87
2021/08/05 04:41:39;;;;;;;5.75;5.20;;;14.20;99.90;;;;;;5028027;28;20206;-86
2021/08/05 04:44:07;;;;;;;5.65;5.05;;;14.30;99.90;;;;;;5037749;28;20241;-86
2021/08/05 04:46:33;;;;;;;5.60;4.60;;;14.30;99.90;;;;;;5037285;28;20198;-87
2021/08/05 04:49:01;;;;;;;5.18;4.68;;;14.30;99.90;;;;;;4997219;28;20235;-86
2021/08/05 04:51:31;;;;;;;5.40;4.85;;;14.30;99.90;;;;;;5007718;28;20318;-86
2021/08/05 04:54:00;;;;;;;5.40;4.60;;;14.20;99.90;;;;;;5014719;28;20231;-88
2021/08/05 04:56:27;;;;;;;5.50;4.80;;;14.30;99.90;;;;;;5015529;28;20214;-87
2021/08/05 04:58:55;;;;;;;6.32;4.82;;;14.30;99.90;;;;;;5012380;28;20234;-88
2021/08/05 05:01:23;;;;;;;5.63;5.00;;;14.30;99.90;;;;;;5025867;28;20205;-87
2021/08/05 05:03:50;;;;;;;6.43;3.95;;;14.20;99.90;;;;;;5005861;28;20651;-87
2021/08/05 05:06:17;;;;;;;6.10;4.60;;;14.30;99.90;;;;;;4993733;28;20200;-87
2021/08/05 05:08:44;;;;;;;4.85;4.35;;;14.40;99.90;;;;;;5013434;28;20230;-87
2021/08/05 05:11:11;;;;;;;5.68;4.00;;;14.40;99.90;;;;;;4996075;28;20590;-87
2021/08/05 05:13:38;;;;;;;5.82;4.30;;;14.40;99.90;;;;;;5004112;28;20238;-87
2021/08/05 05:16:06;;;;;;;5.18;3.70;;;14.40;99.90;;;;;;5012370;28;20310;-87
2021/08/05 05:18:33;;;;;;;4.70;4.10;;;14.40;99.90;;;;;;5001994;28;20227;-86
2021/08/05 05:21:02;;;;;;;4.45;4.03;;;14.40;99.90;;;;;;5000631;28;20206;-87
2021/08/05 05:23:29;;;;;;;7.63;3.90;;;14.40;99.90;;;;;;5006578;28;20693;-88
2021/08/05 05:25:56;;;;;;;7.45;4.07;;;14.40;99.90;;;;;;5007293;28;20203;-86
2021/08/05 05:28:23;;;;;;;4.13;3.70;;;14.50;99.90;;;;;;5019128;28;20225;-86
2021/08/05 05:30:51;;;;;;;4.95;3.53;;;14.60;99.90;;;;;;5009250;28;20219;-86
2021/08/05 05:33:19;;;;;;;4.10;3.70;;;14.60;99.90;;;;;;5000745;28;20306;-86
2021/08/05 05:35:46;;;;;;;7.65;3.63;;;14.70;99.90;;;;;;5001843;28;20214;-87
2021/08/05 05:38:16;;;;;;;3.75;3.30;;;14.70;99.90;;;;;;5015460;28;20247;-86
2021/08/05 05:40:43;;;;;;;5.38;3.45;;;14.60;99.90;;;;;;5004956;28;20202;-86
2021/08/05 05:43:10;;;;;;;3.63;3.28;;;14.60;99.90;;;;;;5021600;28;20294;-86
2021/08/05 05:45:37;;;;;;;3.80;3.10;;;14.60;99.90;;;;;;5011136;28;20208;-87
2021/08/05 05:48:04;;;;;;;3.15;2.85;;;14.50;99.90;;;;;;5003931;28;20222;-88
2021/08/05 05:50:33;;;;;;;4.28;3.00;;;14.60;99.90;;;;;;5014332;28;20231;-87
2021/08/05 05:53:00;;;;;;;3.65;2.80;;;14.60;99.90;;;;;;5009479;28;20246;-87
2021/08/05 05:55:27;;;;;;;4.75;2.90;;;14.60;99.90;;;;;;5020622;28;20213;-88
2021/08/05 05:57:54;;;;;;;3.63;2.75;;;14.70;99.90;;;;;;5004404;28;20712;-87
2021/08/05 06:00:21;;;;;;;4.65;3.10;;;14.70;99.90;;;;;;5007826;28;20677;-87
2021/08/05 06:02:48;;;;;;;5.10;2.80;;;14.70;99.90;;;;;;5011556;28;20318;-89
2021/08/05 06:05:15;;;;;;;4.22;2.78;;;14.70;99.90;;;;;;5017885;28;20650;-87
2021/08/05 06:07:48;;;;;;;3.58;2.70;;;14.80;99.90;;;;;;5015377;28;20239;-88
2021/08/05 06:10:17;;;;;;;4.40;2.65;;;14.80;99.90;;;;;;5015732;28;20203;-88
2021/08/05 06:12:44;;;;;;;5.53;3.10;;;15.00;99.90;;;;;;5020427;28;20257;-87
2021/08/05 06:15:11;;;;;;;4.00;2.90;;;14.80;99.90;;;;;;5008040;28;20558;-87
2021/08/05 06:17:40;;;;;;;3.45;3.08;;;14.80;99.90;;;;;;5006942;28;20227;-87
2021/08/05 06:20:09;;;;;;;7.55;2.70;;;14.80;99.90;;;;;;5021728;28;20220;-87
2021/08/05 06:22:37;;;;;;;3.20;2.90;;;14.80;99.90;;;;;;5022162;28;20573;-87
2021/08/05 06:25:07;;;;;;;4.18;3.20;;;14.90;99.90;;;;;;5009372;28;20558;-88
2021/08/05 06:27:33;;;;;;;3.58;3.28;;;14.80;99.90;;;;;;5013487;28;20210;-87
2021/08/05 06:30:00;;;;;;;3.95;3.10;;;14.70;99.90;;;;;;5001260;28;20218;-87
2021/08/05 06:32:27;;;;;;;6.20;3.65;;;14.70;99.90;;;;;;5006740;28;20275;-87
2021/08/05 06:34:54;;;;;;;5.63;2.85;;;14.70;99.90;;;;;;5011205;28;20187;-88
2021/08/05 06:37:21;;;;;;;4.95;3.20;;;14.90;99.90;;;;;;5013393;28;20647;-88
2021/08/05 06:39:48;;;;;;;5.85;2.63;;;14.90;99.90;;;;;;5014055;28;20199;-87
2021/08/05 06:42:16;;;;;;;4.28;2.90;;;15.00;99.90;;;;;;5008776;28;20214;-87
2021/08/05 06:44:43;;;;;;;5.70;2.90;;;15.10;99.90;;;;;;5007593;28;20238;-87
2021/08/05 06:47:10;;;;;;;5.63;2.92;;;15.10;99.90;;;;;;5006347;28;20203;-87
2021/08/05 06:49:37;;;;;;;4.53;3.10;;;15.10;99.90;;;;;;5015371;28;20262;-87
2021/08/05 06:52:04;;;;;;;4.13;2.90;;;15.20;99.90;;;;;;5026563;28;20686;-87
2021/08/05 06:54:31;;;;;;;3.80;3.03;;;15.20;99.90;;;;;;5006522;28;20580;-87
2021/08/05 06:56:57;;;;;;;4.13;2.83;;;15.20;99.90;;;;;;4997351;28;20196;-87
2021/08/05 06:59:26;;;;;;;3.83;2.65;;;15.30;99.90;;;;;;4996336;28;20306;-87
2021/08/05 07:01:52;;;;;;;4.70;3.10;;;15.30;99.90;;;;;;4996665;28;20210;-87
2021/08/05 07:04:19;;;;;;;3.42;3.13;;;15.40;99.90;;;;;;4997430;28;20206;-88
2021/08/05 07:07:08;;;;;;;3.97;3.17;;;15.40;99.90;;;;;;4997451;28;20188;-87
2021/08/05 07:09:35;;;;;;;2.90;2.58;;;15.50;99.90;;;;;;4996697;28;20246;-86
2021/08/05 07:12:02;;;;;;;3.20;2.72;;;15.60;99.90;;;;;;4996931;28;20208;-86
2021/08/05 07:14:53;;;;;;;4.40;2.80;;;15.50;99.80;;;;;;5008600;28;20214;-86
2021/08/05 07:17:20;;;;;;;4.00;2.35;;;15.60;99.80;;;;;;4997845;28;20282;-86
2021/08/05 07:19:47;;;;;;;2.83;2.40;;;15.50;99.90;;;;;;5005852;28;20210;-86
2021/08/05 07:22:26;;;;;;;2.90;2.60;;;15.50;99.90;;;;;;4997465;28;20206;-86
2021/08/05 07:24:53;;;;;;;3.25;2.78;;;15.50;99.90;;;;;;4998356;28;20647;-86
2021/08/05 07:27:20;;;;;;;3.35;2.58;;;15.50;99.90;;;;;;4996978;28;20206;-87
2021/08/05 07:30:24;;;;;;;4.15;2.90;;;15.50;99.90;;;;;;4996072;28;20260;-86
2021/08/05 07:32:51;;;;;;;3.25;2.63;;;15.40;99.90;;;;;;5007360;28;20223;-87
2021/08/05 07:35:18;;;;;;;2.92;2.40;;;15.40;99.90;;;;;;4997044;28;20220;-86
